Time;durP1;ratioP1;P1;durP2;ratioP2;P2;SDS_P1;SDS_P2;PMS_P1;PMS_P2;Temp;Humidity;BMP_temperature;BMP_pressure;BME280_temperature;BME280_humidity;BME280_pressure;Samples;Min_cycle;Max_cycle;Signal;HPM_P1;HPM_P2
2024/01/20 00:01:11;;;;;;;11.43;8.80;;;;;;;;;;5066339;28;20680;-80
2024/01/20 00:03:38;;;;;;;11.50;8.53;;;;;;;;;;5050938;28;20225;-81
2024/01/20 00:06:04;;;;;;;13.70;9.27;;;;;;;;;;5055571;28;20203;-80
2024/01/20 00:08:31;;;;;;;11.77;8.80;;;;;;;;;;5054602;28;20193;-80
2024/01/20 00:10:58;;;;;;;10.63;8.60;;;;;;;;;;5048827;28;20768;-80
2024/01/20 00:13:24;;;;;;;13.47;9.47;;;;;;;;;;5047777;28;20654;-80
2024/01/20 00:15:51;;;;;;;12.93;9.10;;;;;;;;;;5057727;28;20213;-79
2024/01/20 00:18:19;;;;;;;12.03;8.87;;;;;;;;;;5054436;28;20243;-81
2024/01/20 00:20:46;;;;;;;14.03;9.27;;;;;;;;;;5053321;28;20621;-77
2024/01/20 00:23:13;;;;;;;13.10;9.30;;;;;;;;;;5047996;28;20773;-78
2024/01/20 00:25:40;;;;;;;14.40;9.67;;;;;;;;;;5054134;28;20217;-81
2024/01/20 00:28:07;;;;;;;11.03;8.80;;;;;;;;;;5054061;28;20276;-78
2024/01/20 00:30:34;;;;;;;12.30;9.07;;;;;;;;;;5062883;28;20216;-78
2024/01/20 00:33:02;;;;;;;12.27;9.10;;;;;;;;;;5063900;28;20193;-83
2024/01/20 00:35:29;;;;;;;12.77;9.27;;;;;;;;;;5056480;28;20198;-78
2024/01/20 00:37:55;;;;;;;14.67;9.60;;;;;;;;;;5043773;28;20221;-80
2024/01/20 00:40:23;;;;;;;11.73;8.97;;;;;;;;;;5051561;28;20186;-80
2024/01/20 00:42:50;;;;;;;12.83;8.87;;;;;;;;;;5049660;28;20251;-79
2024/01/20 00:45:16;;;;;;;11.87;8.23;;;;;;;;;;5052158;28;20296;-80
2024/01/20 00:47:44;;;;;;;13.37;8.33;;;;;;;;;;5052396;28;20210;-80
2024/01/20 00:50:11;;;;;;;11.87;8.93;;;;;;;;;;5052622;28;20229;-78
2024/01/20 00:52:37;;;;;;;10.87;8.13;;;;;;;;;;5052031;28;20198;-79
2024/01/20 00:55:04;;;;;;;11.13;8.30;;;;;;;;;;5051134;28;20197;-79
2024/01/20 00:57:31;;;;;;;10.60;8.43;;;;;;;;;;5050772;28;20862;-79
2024/01/20 00:59:57;;;;;;;11.10;8.50;;;;;;;;;;5049551;28;20834;-79
2024/01/20 01:02:25;;;;;;;12.20;8.27;;;;;;;;;;5051557;28;20196;-77
2024/01/20 01:04:51;;;;;;;11.13;8.30;;;;;;;;;;5053495;28;20219;-79
2024/01/20 01:07:18;;;;;;;11.00;7.93;;;;;;;;;;5049252;28;20224;-79
2024/01/20 01:09:44;;;;;;;13.00;9.13;;;;;;;;;;5050820;28;20740;-80
2024/01/20 01:12:11;;;;;;;10.83;8.03;;;;;;;;;;5047824;28;20225;-80
2024/01/20 01:14:38;;;;;;;11.87;8.17;;;;;;;;;;5050526;28;20225;-78
2024/01/20 01:17:04;;;;;;;12.47;8.97;;;;;;;;;;5051161;28;20266;-79
2024/01/20 01:19:31;;;;;;;11.77;9.07;;;;;;;;;;5046978;28;20266;-81
2024/01/20 01:21:58;;;;;;;11.47;8.70;;;;;;;;;;5057417;28;20197;-79
2024/01/20 01:24:24;;;;;;;12.53;8.73;;;;;;;;;;5056926;28;20904;-79
2024/01/20 01:26:51;;;;;;;12.30;8.97;;;;;;;;;;5056860;28;20196;-79
2024/01/20 01:29:17;;;;;;;13.57;8.97;;;;;;;;;;5058106;28;20189;-77
2024/01/20 01:31:44;;;;;;;12.33;8.83;;;;;;;;;;5057943;28;20201;-81
2024/01/20 01:34:11;;;;;;;12.47;9.07;;;;;;;;;;5052909;28;20228;-80
2024/01/20 01:36:38;;;;;;;11.53;8.60;;;;;;;;;;5052678;28;20204;-79
2024/01/20 01:39:04;;;;;;;13.10;9.67;;;;;;;;;;5050607;28;20265;-79
2024/01/20 01:41:31;;;;;;;11.00;8.47;;;;;;;;;;5058814;28;20228;-77
2024/01/20 01:43:58;;;;;;;11.97;9.03;;;;;;;;;;5064371;28;20254;-77
2024/01/20 01:46:26;;;;;;;12.77;8.43;;;;;;;;;;5064136;28;20213;-79
2024/01/20 01:48:52;;;;;;;13.43;8.90;;;;;;;;;;5064289;28;20193;-78
2024/01/20 01:51:19;;;;;;;13.57;9.47;;;;;;;;;;5064196;28;20236;-82
2024/01/20 01:53:47;;;;;;;11.20;8.30;;;;;;;;;;5067314;28;20209;-78
2024/01/20 01:56:14;;;;;;;12.80;9.30;;;;;;;;;;5054009;28;20658;-79
2024/01/20 01:58:44;;;;;;;12.10;8.77;;;;;;;;;;5054111;28;20200;-77
2024/01/20 02:01:10;;;;;;;11.47;8.53;;;;;;;;;;5049599;28;20219;-78
2024/01/20 02:03:38;;;;;;;12.93;8.90;;;;;;;;;;5050986;28;20220;-79
2024/01/20 02:06:07;;;;;;;11.13;8.37;;;;;;;;;;5052442;28;20236;-79
2024/01/20 02:08:34;;;;;;;10.63;8.40;;;;;;;;;;5050525;28;20205;-78
2024/01/20 02:11:02;;;;;;;13.53;9.43;;;;;;;;;;5049559;28;20262;-80
2024/01/20 02:13:28;;;;;;;12.23;8.90;;;;;;;;;;5051001;28;20330;-77
2024/01/20 02:15:55;;;;;;;10.40;8.40;;;;;;;;;;5052705;28;20728;-81
2024/01/20 02:18:22;;;;;;;11.40;9.00;;;;;;;;;;5047774;28;20193;-78
2024/01/20 02:20:50;;;;;;;12.80;8.47;;;;;;;;;;5058908;28;20219;-79
2024/01/20 02:23:16;;;;;;;9.67;7.93;;;;;;;;;;5062658;28;20193;-80
2024/01/20 02:25:43;;;;;;;11.20;8.33;;;;;;;;;;5063754;28;20248;-79
2024/01/20 02:28:09;;;;;;;10.17;8.13;;;;;;;;;;5059213;28;20270;-79
2024/01/20 02:30:36;;;;;;;11.63;8.27;;;;;;;;;;5062517;28;20194;-79
2024/01/20 02:33:02;;;;;;;11.30;8.47;;;;;;;;;;5065743;28;20198;-79
2024/01/20 02:35:29;;;;;;;10.33;7.80;;;;;;;;;;5063997;28;20280;-77
2024/01/20 02:37:56;;;;;;;11.60;7.77;;;;;;;;;;5064852;28;20658;-80
2024/01/20 02:40:23;;;;;;;10.77;8.47;;;;;;;;;;5054124;28;20248;-78
2024/01/20 02:42:49;;;;;;;10.77;7.80;;;;;;;;;;5070072;28;20198;-77
2024/01/20 02:45:16;;;;;;;12.17;8.10;;;;;;;;;;5056450;28;20249;-78
2024/01/20 02:47:43;;;;;;;10.87;7.77;;;;;;;;;;5057330;28;20224;-78
2024/01/20 02:50:10;;;;;;;12.70;8.23;;;;;;;;;;5066814;28;20233;-78
2024/01/20 02:52:37;;;;;;;12.63;8.37;;;;;;;;;;5063952;28;20270;-79
2024/01/20 02:55:04;;;;;;;11.07;8.07;;;;;;;;;;5061206;28;20315;-80
2024/01/20 02:57:30;;;;;;;11.97;8.30;;;;;;;;;;5068276;28;20209;-77
2024/01/20 02:59:57;;;;;;;9.67;7.47;;;;;;;;;;5067330;28;20205;-80
2024/01/20 03:02:24;;;;;;;11.20;7.80;;;;;;;;;;5056777;28;20181;-76
2024/01/20 03:04:50;;;;;;;10.33;7.67;;;;;;;;;;5044333;28;20256;-78
2024/01/20 03:07:17;;;;;;;12.00;8.67;;;;;;;;;;5070563;28;20243;-77
2024/01/20 03:09:44;;;;;;;11.80;8.17;;;;;;;;;;5075906;28;20189;-77
2024/01/20 03:12:10;;;;;;;10.70;8.23;;;;;;;;;;5055939;28;20749;-81
2024/01/20 03:14:37;;;;;;;10.43;8.07;;;;;;;;;;5058143;28;20696;-78
2024/01/20 03:17:04;;;;;;;12.33;8.20;;;;;;;;;;5065800;28;20528;-80
2024/01/20 03:19:30;;;;;;;9.97;7.87;;;;;;;;;;5055954;28;20281;-78
2024/01/20 03:21:57;;;;;;;11.10;7.97;;;;;;;;;;5057493;28;20189;-77
2024/01/20 03:24:24;;;;;;;11.73;9.03;;;;;;;;;;5062780;28;20221;-79
2024/01/20 03:26:51;;;;;;;11.30;8.40;;;;;;;;;;5066349;28;20189;-77
2024/01/20 03:29:17;;;;;;;12.50;8.37;;;;;;;;;;5048604;28;20287;-79
2024/01/20 03:31:44;;;;;;;12.10;8.93;;;;;;;;;;5059347;28;20227;-79
2024/01/20 03:34:11;;;;;;;12.23;8.77;;;;;;;;;;5068525;28;20196;-79
2024/01/20 03:36:37;;;;;;;10.33;7.87;;;;;;;;;;5066708;28;20200;-77
2024/01/20 03:39:04;;;;;;;11.03;8.40;;;;;;;;;;5059078;28;20220;-78
2024/01/20 03:41:31;;;;;;;9.97;7.80;;;;;;;;;;5069508;28;20272;-78
2024/01/20 03:43:57;;;;;;;13.30;9.03;;;;;;;;;;5071847;28;20196;-78
2024/01/20 03:46:24;;;;;;;9.47;7.27;;;;;;;;;;5066071;28;20780;-78
2024/01/20 03:48:51;;;;;;;11.43;8.43;;;;;;;;;;5050307;28;20268;-77
2024/01/20 03:51:26;;;;;;;11.70;8.80;;;;;;;;;;5045194;28;20268;-77
2024/01/20 03:53:54;;;;;;;11.50;8.83;;;;;;;;;;5058187;28;20288;-78
2024/01/20 03:56:20;;;;;;;11.17;8.10;;;;;;;;;;5043021;28;20190;-79
2024/01/20 03:58:47;;;;;;;11.57;8.37;;;;;;;;;;5062967;28;20216;-80
2024/01/20 04:01:14;;;;;;;11.50;8.60;;;;;;;;;;5060088;28;20744;-78
2024/01/20 04:03:40;;;;;;;12.07;8.27;;;;;;;;;;5069737;28;20262;-78
2024/01/20 04:06:07;;;;;;;10.97;8.03;;;;;;;;;;5066990;28;20225;-80
2024/01/20 04:08:34;;;;;;;13.13;7.90;;;;;;;;;;5063646;28;20200;-77
2024/01/20 04:11:01;;;;;;;10.77;8.03;;;;;;;;;;5052200;28;20194;-78
2024/01/20 04:13:28;;;;;;;11.13;8.23;;;;;;;;;;5071082;28;20212;-79
2024/01/20 04:15:55;;;;;;;10.57;8.30;;;;;;;;;;5062031;28;20197;-77
2024/01/20 04:18:21;;;;;;;10.70;7.73;;;;;;;;;;5071156;28;20212;-78
2024/01/20 04:20:48;;;;;;;11.40;8.50;;;;;;;;;;5065284;28;20194;-77
2024/01/20 04:23:15;;;;;;;10.40;7.73;;;;;;;;;;5070948;28;20289;-79
2024/01/20 04:25:41;;;;;;;11.00;8.13;;;;;;;;;;5069444;28;20217;-79
2024/01/20 04:28:08;;;;;;;9.37;7.20;;;;;;;;;;5047344;28;20201;-79
2024/01/20 04:30:34;;;;;;;9.27;7.47;;;;;;;;;;5068295;28;20285;-76
2024/01/20 04:33:01;;;;;;;11.70;7.63;;;;;;;;;;5063312;28;20193;-78
2024/01/20 04:35:28;;;;;;;9.63;7.03;;;;;;;;;;5044430;28;20213;-77
2024/01/20 04:37:57;;;;;;;11.77;7.10;;;;;;;;;;5059554;28;20196;-76
2024/01/20 04:40:23;;;;;;;10.07;7.20;;;;;;;;;;5059203;28;20280;-76
2024/01/20 04:42:50;;;;;;;8.80;6.67;;;;;;;;;;5050577;28;20214;-77
2024/01/20 04:45:16;;;;;;;8.13;6.10;;;;;;;;;;5062624;28;20296;-77
2024/01/20 04:47:43;;;;;;;11.57;7.00;;;;;;;;;;5068110;28;20228;-79
2024/01/20 04:50:10;;;;;;;8.47;6.40;;;;;;;;;;5050957;28;20236;-78
2024/01/20 04:52:37;;;;;;;9.00;6.80;;;;;;;;;;5054142;28;20211;-77
2024/01/20 04:55:03;;;;;;;8.13;6.30;;;;;;;;;;5056784;28;20262;-81
2024/01/20 04:57:30;;;;;;;9.57;6.63;;;;;;;;;;5057490;28;20225;-80
2024/01/20 04:59:56;;;;;;;9.27;6.23;;;;;;;;;;5057639;28;20193;-79
2024/01/20 05:02:23;;;;;;;10.53;6.90;;;;;;;;;;5057248;28;20966;-78
2024/01/20 05:04:49;;;;;;;9.30;6.47;;;;;;;;;;5055969;28;20225;-77
2024/01/20 05:07:16;;;;;;;9.30;6.53;;;;;;;;;;5054652;28;20190;-79
2024/01/20 05:09:43;;;;;;;8.17;6.30;;;;;;;;;;5056255;28;20611;-78
2024/01/20 05:12:09;;;;;;;8.50;5.87;;;;;;;;;;5055261;28;20194;-78
2024/01/20 05:14:36;;;;;;;8.83;5.87;;;;;;;;;;5042120;28;20297;-78
2024/01/20 05:17:03;;;;;;;7.73;5.80;;;;;;;;;;5057346;28;20197;-79
2024/01/20 05:19:29;;;;;;;8.00;6.10;;;;;;;;;;5063932;28;20247;-79
2024/01/20 05:21:56;;;;;;;8.23;5.90;;;;;;;;;;5049961;28;20193;-80
2024/01/20 05:24:23;;;;;;;9.03;5.67;;;;;;;;;;5062455;28;20197;-76
2024/01/20 05:26:49;;;;;;;8.20;5.53;;;;;;;;;;5068902;28;20249;-77
2024/01/20 05:29:16;;;;;;;10.07;5.87;;;;;;;;;;5070059;28;20276;-77
2024/01/20 05:31:42;;;;;;;8.20;5.93;;;;;;;;;;5069702;28;20230;-78
2024/01/20 05:34:10;;;;;;;8.70;6.07;;;;;;;;;;5064274;28;20198;-78
2024/01/20 05:36:37;;;;;;;7.60;5.97;;;;;;;;;;5064405;28;20221;-78
2024/01/20 05:39:04;;;;;;;9.17;5.97;;;;;;;;;;5071387;28;20196;-77
2024/01/20 05:41:31;;;;;;;7.60;5.10;;;;;;;;;;5059337;28;20197;-77
2024/01/20 05:43:58;;;;;;;6.93;5.43;;;;;;;;;;5064003;28;20189;-79
2024/01/20 05:46:25;;;;;;;7.03;5.37;;;;;;;;;;5050914;28;20693;-79
2024/01/20 05:48:51;;;;;;;7.70;5.60;;;;;;;;;;5058915;28;20666;-77
2024/01/20 05:51:18;;;;;;;6.73;5.50;;;;;;;;;;5057555;28;20278;-79
2024/01/20 05:53:45;;;;;;;7.03;5.10;;;;;;;;;;5055376;28;20294;-77
2024/01/20 05:56:11;;;;;;;7.27;5.60;;;;;;;;;;5055194;28;20225;-77
2024/01/20 05:58:40;;;;;;;6.70;5.60;;;;;;;;;;5051252;28;20195;-77
2024/01/20 06:01:09;;;;;;;7.10;5.53;;;;;;;;;;5054812;28;20208;-77
2024/01/20 06:03:35;;;;;;;7.63;5.63;;;;;;;;;;5056244;28;20197;-77
2024/01/20 06:06:02;;;;;;;8.77;5.37;;;;;;;;;;5055156;28;20205;-77
2024/01/20 06:08:29;;;;;;;8.10;5.73;;;;;;;;;;5053412;28;20194;-77
2024/01/20 06:10:55;;;;;;;7.57;5.23;;;;;;;;;;5053713;28;20221;-79
2024/01/20 06:13:22;;;;;;;7.77;5.53;;;;;;;;;;5055745;28;20194;-78
2024/01/20 06:15:48;;;;;;;8.13;6.37;;;;;;;;;;5055876;28;20743;-78
2024/01/20 06:18:15;;;;;;;6.67;5.53;;;;;;;;;;5054597;28;20205;-80
2024/01/20 06:20:41;;;;;;;6.97;5.57;;;;;;;;;;5057988;28;20274;-79
2024/01/20 06:23:08;;;;;;;7.30;5.60;;;;;;;;;;5070388;28;20242;-79
2024/01/20 06:25:35;;;;;;;7.37;5.50;;;;;;;;;;5071526;28;20719;-80
2024/01/20 06:28:03;;;;;;;6.27;5.33;;;;;;;;;;5066728;28;20802;-77
2024/01/20 06:30:29;;;;;;;7.30;5.87;;;;;;;;;;5064841;28;20264;-78
2024/01/20 06:32:56;;;;;;;8.57;6.03;;;;;;;;;;5058988;28;20198;-80
2024/01/20 06:35:23;;;;;;;7.67;5.40;;;;;;;;;;5055917;28;20221;-77
2024/01/20 06:37:49;;;;;;;8.37;5.40;;;;;;;;;;5064632;28;20246;-80
2024/01/20 06:40:16;;;;;;;8.13;5.60;;;;;;;;;;5067422;28;20197;-77
2024/01/20 06:42:43;;;;;;;8.27;5.43;;;;;;;;;;5066146;28;20217;-78
2024/01/20 06:45:10;;;;;;;8.93;6.00;;;;;;;;;;5066026;28;20275;-77
2024/01/20 06:47:36;;;;;;;8.47;5.50;;;;;;;;;;5070349;28;20604;-81
2024/01/20 06:50:03;;;;;;;7.13;5.43;;;;;;;;;;5060263;28;20622;-77
2024/01/20 06:52:31;;;;;;;8.83;5.93;;;;;;;;;;5053285;28;20228;-81
2024/01/20 06:54:57;;;;;;;8.97;6.00;;;;;;;;;;5056092;28;20277;-80
2024/01/20 06:57:24;;;;;;;8.17;5.33;;;;;;;;;;5055357;28;20197;-77
2024/01/20 06:59:51;;;;;;;7.47;5.40;;;;;;;;;;5063021;28;20189;-79
2024/01/20 07:02:17;;;;;;;6.50;5.43;;;;;;;;;;5072838;28;20196;-77
2024/01/20 07:04:44;;;;;;;8.03;5.77;;;;;;;;;;5073044;28;20276;-79
2024/01/20 07:07:11;;;;;;;7.20;5.37;;;;;;;;;;5068111;28;20241;-78
2024/01/20 07:09:40;;;;;;;7.40;5.87;;;;;;;;;;5065296;28;20654;-81
2024/01/20 07:12:09;;;;;;;11.53;6.17;;;;;;;;;;5064100;28;20271;-78
2024/01/20 07:14:36;;;;;;;8.10;5.80;;;;;;;;;;5063996;28;20189;-79
2024/01/20 07:17:05;;;;;;;7.50;5.57;;;;;;;;;;5059579;28;20590;-80
2024/01/20 07:19:31;;;;;;;7.03;5.40;;;;;;;;;;5065234;28;20197;-77
2024/01/20 07:21:58;;;;;;;7.43;5.87;;;;;;;;;;5063240;28;20205;-78
2024/01/20 07:24:27;;;;;;;7.07;5.90;;;;;;;;;;5063359;28;20275;-80
2024/01/20 07:26:54;;;;;;;7.10;5.60;;;;;;;;;;5063797;28;20231;-80
2024/01/20 07:29:22;;;;;;;7.90;6.13;;;;;;;;;;5068191;28;20265;-79
2024/01/20 07:31:50;;;;;;;6.67;5.53;;;;;;;;;;5071185;28;20285;-81
2024/01/20 07:34:16;;;;;;;7.03;5.73;;;;;;;;;;5060187;28;20684;-79
2024/01/20 07:36:43;;;;;;;8.37;6.00;;;;;;;;;;5061287;28;20259;-78
2024/01/20 07:39:10;;;;;;;7.83;5.80;;;;;;;;;;5055611;28;20194;-79
2024/01/20 07:41:37;;;;;;;8.37;6.00;;;;;;;;;;5065849;28;20276;-78
2024/01/20 07:44:03;;;;;;;7.30;5.57;;;;;;;;;;5059528;28;20268;-77
2024/01/20 07:46:30;;;;;;;7.23;6.13;;;;;;;;;;5058165;28;20308;-81
2024/01/20 07:48:56;;;;;;;7.17;5.80;;;;;;;;;;5067167;28;20674;-79
2024/01/20 07:51:23;;;;;;;8.57;6.03;;;;;;;;;;5063274;28;20233;-79
2024/01/20 07:53:50;;;;;;;7.37;6.23;;;;;;;;;;5052854;28;20304;-83
2024/01/20 07:56:16;;;;;;;7.57;5.73;;;;;;;;;;5060343;28;20224;-78
2024/01/20 07:58:43;;;;;;;7.30;5.60;;;;;;;;;;5064943;28;20217;-79
2024/01/20 08:01:10;;;;;;;7.80;6.10;;;;;;;;;;5052556;28;20255;-78
2024/01/20 08:03:36;;;;;;;7.80;6.20;;;;;;;;;;5052314;28;20721;-79
2024/01/20 08:06:03;;;;;;;7.00;5.87;;;;;;;;;;5061881;28;20210;-77
2024/01/20 08:08:30;;;;;;;7.17;5.57;;;;;;;;;;5054999;28;20204;-78
2024/01/20 08:10:56;;;;;;;9.23;5.80;;;;;;;;;;5052694;28;20196;-79
2024/01/20 08:13:23;;;;;;;8.13;6.23;;;;;;;;;;5052111;28;20198;-79
2024/01/20 08:15:49;;;;;;;6.97;5.53;;;;;;;;;;5068036;28;20221;-78
2024/01/20 08:18:16;;;;;;;8.87;5.87;;;;;;;;;;5068454;28;20204;-78
2024/01/20 08:20:43;;;;;;;7.93;5.70;;;;;;;;;;5072220;28;20276;-81
2024/01/20 08:23:10;;;;;;;5.97;5.37;;;;;;;;;;5064971;28;20197;-78
2024/01/20 08:25:36;;;;;;;8.57;5.13;;;;;;;;;;5059461;28;20197;-78
2024/01/20 08:28:03;;;;;;;7.67;5.70;;;;;;;;;;5064045;28;20300;-81
2024/01/20 08:30:29;;;;;;;8.13;6.13;;;;;;;;;;5066210;28;20225;-77
2024/01/20 08:32:56;;;;;;;5.87;5.00;;;;;;;;;;5057705;28;20190;-78
2024/01/20 08:35:28;;;;;;;7.30;5.30;;;;;;;;;;5058373;28;20288;-77
2024/01/20 08:37:54;;;;;;;5.47;4.67;;;;;;;;;;5061733;28;20203;-78
2024/01/20 08:40:21;;;;;;;6.73;5.23;;;;;;;;;;5064308;28;20189;-78
2024/01/20 08:42:47;;;;;;;6.80;5.13;;;;;;;;;;5052789;28;20295;-80
2024/01/20 08:45:14;;;;;;;6.40;5.10;;;;;;;;;;5062015;28;20280;-81
2024/01/20 08:47:41;;;;;;;6.93;4.90;;;;;;;;;;5067100;28;20228;-79
2024/01/20 08:50:08;;;;;;;9.00;5.13;;;;;;;;;;5054970;28;20229;-77
2024/01/20 08:52:35;;;;;;;7.57;5.00;;;;;;;;;;5039018;28;20679;-80
2024/01/20 08:55:01;;;;;;;6.60;4.93;;;;;;;;;;5060638;28;20202;-78
2024/01/20 08:57:29;;;;;;;8.90;5.40;;;;;;;;;;5052469;28;20647;-80
2024/01/20 08:59:56;;;;;;;8.60;4.87;;;;;;;;;;5051956;28;20194;-78
2024/01/20 09:02:23;;;;;;;6.47;4.67;;;;;;;;;;5054556;28;20276;-78
2024/01/20 09:04:49;;;;;;;5.07;4.43;;;;;;;;;;5051239;28;20204;-80
2024/01/20 09:07:16;;;;;;;5.80;5.10;;;;;;;;;;5051090;28;20820;-79
2024/01/20 09:09:43;;;;;;;6.77;4.93;;;;;;;;;;5061852;28;20228;-79
2024/01/20 09:12:09;;;;;;;6.33;5.60;;;;;;;;;;5051489;28;20662;-78
2024/01/20 09:14:36;;;;;;;12.00;5.50;;;;;;;;;;5062417;28;20196;-82
2024/01/20 09:17:03;;;;;;;6.47;4.57;;;;;;;;;;5050806;28;20205;-79
2024/01/20 09:19:30;;;;;;;6.33;4.63;;;;;;;;;;5052940;28;20276;-78
2024/01/20 09:21:56;;;;;;;5.50;4.43;;;;;;;;;;5058605;28;20196;-79
2024/01/20 09:24:23;;;;;;;5.47;4.20;;;;;;;;;;5061469;28;20199;-79
2024/01/20 09:26:49;;;;;;;4.87;3.90;;;;;;;;;;5056936;28;20273;-79
2024/01/20 09:29:16;;;;;;;8.47;4.10;;;;;;;;;;5056930;28;20288;-81
2024/01/20 09:31:42;;;;;;;4.93;3.80;;;;;;;;;;5055488;28;20745;-80
2024/01/20 09:34:10;;;;;;;4.73;3.60;;;;;;;;;;5049591;28;20222;-77
2024/01/20 09:36:37;;;;;;;4.20;3.20;;;;;;;;;;5057536;28;20251;-80
2024/01/20 09:39:04;;;;;;;5.10;3.57;;;;;;;;;;5063622;28;20193;-78
2024/01/20 09:41:31;;;;;;;6.53;3.70;;;;;;;;;;5056854;28;20965;-82
2024/01/20 09:43:58;;;;;;;5.43;4.03;;;;;;;;;;5060254;28;20664;-81
2024/01/20 09:46:25;;;;;;;3.93;3.50;;;;;;;;;;5060589;28;20220;-81
2024/01/20 09:48:55;;;;;;;3.90;3.57;;;;;;;;;;5048779;28;20208;-81
2024/01/20 09:51:28;;;;;;;4.67;3.57;;;;;;;;;;5059491;28;20232;-81
2024/01/20 09:53:58;;;;;;;5.13;3.20;;;;;;;;;;5044853;28;20662;-79
2024/01/20 09:56:25;;;;;;;3.73;3.20;;;;;;;;;;5042816;28;20229;-82
2024/01/20 09:58:53;;;;;;;3.17;2.77;;;;;;;;;;5046412;28;20228;-82
2024/01/20 10:01:20;;;;;;;4.27;3.63;;;;;;;;;;5038237;28;20296;-83
2024/01/20 10:03:47;;;;;;;3.67;2.87;;;;;;;;;;5050687;28;20197;-81
2024/01/20 10:06:14;;;;;;;3.30;2.63;;;;;;;;;;5055184;28;20213;-82
2024/01/20 10:08:40;;;;;;;4.47;2.90;;;;;;;;;;5069423;28;20193;-80
2024/01/20 10:11:07;;;;;;;3.50;3.20;;;;;;;;;;5051810;28;20853;-79
2024/01/20 10:13:33;;;;;;;3.53;2.70;;;;;;;;;;5037425;28;20547;-80
2024/01/20 10:16:00;;;;;;;3.70;2.70;;;;;;;;;;5055245;28;20262;-80
2024/01/20 10:18:27;;;;;;;3.00;2.40;;;;;;;;;;5043698;28;20293;-81
2024/01/20 10:21:00;;;;;;;3.00;2.70;;;;;;;;;;5052497;28;20272;-82
2024/01/20 10:23:27;;;;;;;3.57;2.70;;;;;;;;;;5056357;28;20684;-80
2024/01/20 10:26:20;;;;;;;3.47;2.67;;;;;;;;;;5052874;28;20243;-80
2024/01/20 10:28:47;;;;;;;3.83;2.80;;;;;;;;;;5047359;28;20224;-80
2024/01/20 10:31:13;;;;;;;2.83;2.20;;;;;;;;;;5044304;28;20218;-81
2024/01/20 10:33:40;;;;;;;2.93;2.30;;;;;;;;;;5056511;28;20205;-80
2024/01/20 10:36:10;;;;;;;7.53;2.77;;;;;;;;;;5057547;28;20196;-83
2024/01/20 10:38:38;;;;;;;2.80;2.23;;;;;;;;;;5050658;28;20213;-82
2024/01/20 10:41:07;;;;;;;2.93;2.63;;;;;;;;;;5052714;28;20213;-79
2024/01/20 10:43:39;;;;;;;3.23;2.63;;;;;;;;;;5044408;28;20657;-81
2024/01/20 10:46:11;;;;;;;3.10;2.33;;;;;;;;;;5051399;28;20201;-83
2024/01/20 10:48:41;;;;;;;2.90;2.60;;;;;;;;;;5061095;28;20302;-83
2024/01/20 10:51:10;;;;;;;2.37;2.03;;;;;;;;;;5059070;28;20237;-83
2024/01/20 10:53:36;;;;;;;2.50;2.20;;;;;;;;;;5053565;28;20633;-81
2024/01/20 10:56:04;;;;;;;3.27;2.60;;;;;;;;;;5057935;28;20281;-80
2024/01/20 10:58:33;;;;;;;4.53;2.30;;;;;;;;;;5047765;28;20348;-82
2024/01/20 11:01:00;;;;;;;3.43;2.53;;;;;;;;;;5057841;28;20220;-81
2024/01/20 11:03:27;;;;;;;3.67;2.50;;;;;;;;;;5056290;28;20193;-80
2024/01/20 11:05:54;;;;;;;2.67;2.30;;;;;;;;;;5053410;28;20201;-81
2024/01/20 11:08:24;;;;;;;2.80;1.90;;;;;;;;;;5057233;28;20220;-81
2024/01/20 11:10:52;;;;;;;2.80;1.90;;;;;;;;;;5059621;28;20279;-80
2024/01/20 11:13:23;;;;;;;2.60;2.13;;;;;;;;;;5063408;28;20189;-80
2024/01/20 11:15:50;;;;;;;2.17;1.70;;;;;;;;;;5067715;28;20203;-80
2024/01/20 11:18:21;;;;;;;2.03;1.53;;;;;;;;;;5034654;28;20200;-80
2024/01/20 11:20:57;;;;;;;2.13;1.80;;;;;;;;;;5047895;28;20193;-81
2024/01/20 11:23:25;;;;;;;2.07;1.60;;;;;;;;;;5058271;28;20189;-79
2024/01/20 11:25:52;;;;;;;3.77;2.50;;;;;;;;;;5061431;28;20607;-80
2024/01/20 11:28:26;;;;;;;2.73;2.23;;;;;;;;;;5056921;28;20685;-80
2024/01/20 11:30:53;;;;;;;1.60;1.50;;;;;;;;;;5064825;28;20223;-81
2024/01/20 11:33:19;;;;;;;2.80;1.90;;;;;;;;;;5061178;28;20193;-81
2024/01/20 11:35:46;;;;;;;2.20;2.00;;;;;;;;;;5064142;28;20207;-80
2024/01/20 11:38:13;;;;;;;1.93;1.60;;;;;;;;;;5057155;28;20278;-81
2024/01/20 11:40:40;;;;;;;1.53;1.43;;;;;;;;;;5056103;28;20191;-80
2024/01/20 11:43:06;;;;;;;2.40;2.10;;;;;;;;;;5057006;28;20278;-80
2024/01/20 11:45:33;;;;;;;2.23;2.00;;;;;;;;;;5052599;28;20212;-80
2024/01/20 11:48:00;;;;;;;2.10;1.67;;;;;;;;;;5057452;28;20226;-79
2024/01/20 11:50:27;;;;;;;2.10;1.40;;;;;;;;;;5057590;28;20233;-81
2024/01/20 11:52:54;;;;;;;2.13;1.80;;;;;;;;;;5055761;28;20225;-81
2024/01/20 11:55:20;;;;;;;1.87;1.40;;;;;;;;;;5052765;28;20190;-80
2024/01/20 11:57:47;;;;;;;2.37;1.47;;;;;;;;;;5050099;28;20254;-80
2024/01/20 12:00:14;;;;;;;2.27;1.33;;;;;;;;;;5056538;28;20328;-84
2024/01/20 12:02:46;;;;;;;2.23;1.20;;;;;;;;;;5052446;28;20204;-80
2024/01/20 12:05:12;;;;;;;7.00;1.60;;;;;;;;;;5052869;28;20206;-80
2024/01/20 12:07:44;;;;;;;1.50;1.40;;;;;;;;;;5049539;28;20274;-82
2024/01/20 12:10:13;;;;;;;1.73;1.50;;;;;;;;;;5058636;28;20276;-83
2024/01/20 12:12:40;;;;;;;1.40;1.10;;;;;;;;;;5050888;28;20191;-82
2024/01/20 12:15:07;;;;;;;1.73;1.57;;;;;;;;;;5041683;28;20193;-79
2024/01/20 12:17:34;;;;;;;1.50;1.20;;;;;;;;;;5053509;28;20225;-81
2024/01/20 12:20:01;;;;;;;2.17;1.40;;;;;;;;;;5044505;28;20206;-80
2024/01/20 12:22:30;;;;;;;1.70;1.10;;;;;;;;;;5042747;28;20210;-82
2024/01/20 12:24:57;;;;;;;1.70;1.33;;;;;;;;;;5049325;28;20194;-82
2024/01/20 12:27:24;;;;;;;1.47;1.27;;;;;;;;;;5054614;28;20262;-81
2024/01/20 12:29:52;;;;;;;1.30;1.20;;;;;;;;;;5051074;28;20228;-83
2024/01/20 12:32:19;;;;;;;1.20;1.10;;;;;;;;;;5054744;28;20219;-82
2024/01/20 12:34:45;;;;;;;1.47;1.10;;;;;;;;;;5041411;28;20233;-81
2024/01/20 12:37:12;;;;;;;2.00;1.20;;;;;;;;;;5053135;28;20228;-82
2024/01/20 12:39:39;;;;;;;1.47;1.10;;;;;;;;;;5023071;28;20301;-83
2024/01/20 12:42:06;;;;;;;1.30;1.00;;;;;;;;;;5044879;28;20277;-83
2024/01/20 12:44:32;;;;;;;1.77;0.87;;;;;;;;;;5056624;28;20277;-82
2024/01/20 12:46:59;;;;;;;1.33;1.10;;;;;;;;;;5050197;28;20313;-83
2024/01/20 12:49:25;;;;;;;1.23;0.97;;;;;;;;;;5057950;28;20200;-82
2024/01/20 12:51:52;;;;;;;1.20;1.00;;;;;;;;;;5041216;28;20238;-82
2024/01/20 12:54:19;;;;;;;1.70;0.90;;;;;;;;;;5055245;28;20201;-82
2024/01/20 12:56:47;;;;;;;1.30;1.00;;;;;;;;;;5068381;28;20201;-81
2024/01/20 12:59:13;;;;;;;1.27;1.10;;;;;;;;;;5045560;28;20202;-82
2024/01/20 13:01:40;;;;;;;0.90;0.80;;;;;;;;;;5043653;28;20213;-81
2024/01/20 13:04:07;;;;;;;1.33;0.90;;;;;;;;;;5045901;28;20292;-85
2024/01/20 13:06:33;;;;;;;0.70;0.63;;;;;;;;;;5054199;28;20209;-82
2024/01/20 13:09:00;;;;;;;2.53;0.93;;;;;;;;;;5057347;28;20216;-80
2024/01/20 13:11:29;;;;;;;1.80;0.80;;;;;;;;;;5061528;28;20685;-83
2024/01/20 13:13:56;;;;;;;0.83;0.83;;;;;;;;;;5061307;28;20221;-81
2024/01/20 13:16:22;;;;;;;2.30;1.00;;;;;;;;;;5039053;28;20192;-83
2024/01/20 13:18:51;;;;;;;1.00;0.90;;;;;;;;;;5050707;28;20213;-82
2024/01/20 13:21:22;;;;;;;0.70;0.70;;;;;;;;;;5057320;28;20197;-83
2024/01/20 13:23:50;;;;;;;0.97;0.73;;;;;;;;;;5066015;28;20193;-83
2024/01/20 13:26:16;;;;;;;1.77;0.80;;;;;;;;;;5058682;28;20745;-83
2024/01/20 13:28:47;;;;;;;0.77;0.60;;;;;;;;;;5056918;28;20217;-81
2024/01/20 13:31:15;;;;;;;0.80;0.50;;;;;;;;;;5042373;28;20212;-81
2024/01/20 13:33:41;;;;;;;0.90;0.80;;;;;;;;;;5050159;28;20225;-81
2024/01/20 13:36:08;;;;;;;1.40;0.70;;;;;;;;;;5045602;28;20198;-81
2024/01/20 13:38:35;;;;;;;1.23;0.80;;;;;;;;;;5048600;28;20204;-79
2024/01/20 13:41:02;;;;;;;1.63;1.20;;;;;;;;;;5048292;28;20655;-80
2024/01/20 13:43:28;;;;;;;1.20;0.70;;;;;;;;;;5049458;28;20272;-82
2024/01/20 13:45:55;;;;;;;0.93;0.80;;;;;;;;;;5054949;28;20220;-81
2024/01/20 13:48:21;;;;;;;0.90;0.70;;;;;;;;;;5055389;28;20221;-80
2024/01/20 13:50:48;;;;;;;0.60;0.60;;;;;;;;;;5050569;28;20720;-80
2024/01/20 13:53:15;;;;;;;0.83;0.70;;;;;;;;;;5045260;28;20205;-81
2024/01/20 13:55:42;;;;;;;1.97;0.70;;;;;;;;;;5046749;28;20205;-80
2024/01/20 13:58:08;;;;;;;0.70;0.60;;;;;;;;;;5058792;28;20250;-81
2024/01/20 14:00:35;;;;;;;1.17;0.80;;;;;;;;;;5061571;28;20192;-80
2024/01/20 14:03:01;;;;;;;1.70;0.80;;;;;;;;;;5043795;28;20202;-82
2024/01/20 14:05:28;;;;;;;1.80;0.80;;;;;;;;;;5046498;28;20193;-82
2024/01/20 14:07:55;;;;;;;1.40;0.47;;;;;;;;;;5060306;28;20243;-81
2024/01/20 14:10:22;;;;;;;1.73;0.70;;;;;;;;;;5064464;28;20200;-83
2024/01/20 14:12:48;;;;;;;1.30;0.57;;;;;;;;;;5048708;28;20823;-80
2024/01/20 14:15:15;;;;;;;1.37;0.70;;;;;;;;;;5049155;28;20196;-80
2024/01/20 14:17:42;;;;;;;0.40;0.40;;;;;;;;;;5048770;28;20250;-82
2024/01/20 14:20:09;;;;;;;1.20;0.70;;;;;;;;;;5058005;28;20207;-81
2024/01/20 14:22:35;;;;;;;2.00;0.60;;;;;;;;;;5062562;28;20188;-80
2024/01/20 14:25:02;;;;;;;0.77;0.60;;;;;;;;;;5044804;28;20258;-80
2024/01/20 14:27:33;;;;;;;0.73;0.60;;;;;;;;;;5047441;28;20204;-82
2024/01/20 14:29:59;;;;;;;1.07;0.73;;;;;;;;;;5055635;28;20202;-82
2024/01/20 14:32:26;;;;;;;0.97;0.57;;;;;;;;;;5060605;28;20201;-80
2024/01/20 14:34:53;;;;;;;1.03;0.67;;;;;;;;;;5057819;28;20590;-84
2024/01/20 14:37:20;;;;;;;1.27;0.63;;;;;;;;;;5061400;28;20188;-82